sensor_id;sensor_type;location;lat;lon;timestamp;pressure;altitude;pressure_sealevel;temperature;humidity
76478;BME280;65309;49.790;18.972;2023-01-29T00:03:58;97711.03;;;-2.53;85.79
76478;BME280;65309;49.790;18.972;2023-01-29T00:09:00;97709.94;;;-2.48;85.63
76478;BME280;65309;49.790;18.972;2023-01-29T00:14:03;97718.66;;;-2.62;86.56
76478;BME280;65309;49.790;18.972;2023-01-29T00:19:05;97725.00;;;-2.84;86.64
76478;BME280;65309;49.790;18.972;2023-01-29T00:24:07;97726.03;;;-2.92;86.91
76478;BME280;65309;49.790;18.972;2023-01-29T00:29:11;97722.22;;;-2.88;87.29
76478;BME280;65309;49.790;18.972;2023-01-29T00:34:13;97729.94;;;-2.90;87.49
76478;BME280;65309;49.790;18.972;2023-01-29T00:39:15;97739.13;;;-2.98;87.02
76478;BME280;65309;49.790;18.972;2023-01-29T00:44:18;97732.03;;;-3.09;87.50
76478;BME280;65309;49.790;18.972;2023-01-29T00:49:38;97736.69;;;-3.06;87.90
76478;BME280;65309;49.790;18.972;2023-01-29T00:54:40;97741.28;;;-3.10;88.35
76478;BME280;65309;49.790;18.972;2023-01-29T00:59:44;97748.13;;;-3.16;88.52
76478;BME280;65309;49.790;18.972;2023-01-29T01:04:46;97742.28;;;-3.22;89.02
76478;BME280;65309;49.790;18.972;2023-01-29T01:09:48;97747.25;;;-3.24;89.21
76478;BME280;65309;49.790;18.972;2023-01-29T01:15:10;97747.22;;;-3.28;89.26
76478;BME280;65309;49.790;18.972;2023-01-29T01:20:13;97750.28;;;-3.29;89.37
76478;BME280;65309;49.790;18.972;2023-01-29T01:25:16;97754.03;;;-3.37;89.19
76478;BME280;65309;49.790;18.972;2023-01-29T01:30:20;97752.31;;;-3.49;88.43
76478;BME280;65309;49.790;18.972;2023-01-29T01:35:23;97755.31;;;-3.54;89.38
76478;BME280;65309;49.790;18.972;2023-01-29T01:40:25;97750.28;;;-3.55;89.35
76478;BME280;65309;49.790;18.972;2023-01-29T01:45:30;97769.88;;;-3.62;89.34
76478;BME280;65309;49.790;18.972;2023-01-29T01:50:36;97764.00;;;-3.67;89.48
76478;BME280;65309;49.790;18.972;2023-01-29T01:55:43;97769.22;;;-3.78;89.30
76478;BME280;65309;49.790;18.972;2023-01-29T02:00:47;97775.81;;;-3.76;89.90
76478;BME280;65309;49.790;18.972;2023-01-29T02:05:52;97760.38;;;-3.75;90.36
76478;BME280;65309;49.790;18.972;2023-01-29T02:11:14;97760.63;;;-3.84;90.04
76478;BME280;65309;49.790;18.972;2023-01-29T02:16:18;97761.72;;;-3.88;90.57
76478;BME280;65309;49.790;18.972;2023-01-29T02:21:35;97752.75;;;-3.92;89.88
76478;BME280;65309;49.790;18.972;2023-01-29T02:26:49;97740.69;;;-3.98;89.75
76478;BME280;65309;49.790;18.972;2023-01-29T02:32:03;97722.19;;;-3.96;89.36
76478;BME280;65309;49.790;18.972;2023-01-29T02:37:08;97717.34;;;-4.10;88.67
76478;BME280;65309;49.790;18.972;2023-01-29T02:42:17;97721.19;;;-4.11;88.35
76478;BME280;65309;49.790;18.972;2023-01-29T02:47:29;97716.69;;;-4.03;88.63
76478;BME280;65309;49.790;18.972;2023-01-29T02:52:39;97724.69;;;-4.10;89.13
76478;BME280;65309;49.790;18.972;2023-01-29T02:57:46;97719.88;;;-4.21;87.66
76478;BME280;65309;49.790;18.972;2023-01-29T03:02:54;97725.88;;;-4.31;86.73
76478;BME280;65309;49.790;18.972;2023-01-29T03:08:03;97723.69;;;-4.22;86.28
76478;BME280;65309;49.790;18.972;2023-01-29T03:13:12;97728.13;;;-4.33;85.87
76478;BME280;65309;49.790;18.972;2023-01-29T03:18:19;97744.09;;;-4.24;85.57
76478;BME280;65309;49.790;18.972;2023-01-29T03:23:26;97747.16;;;-4.26;85.03
76478;BME280;65309;49.790;18.972;2023-01-29T03:28:48;97756.81;;;-4.05;85.18
76478;BME280;65309;49.790;18.972;2023-01-29T03:34:14;97763.50;;;-4.19;84.53
76478;BME280;65309;49.790;18.972;2023-01-29T03:39:17;97761.09;;;-4.24;83.39
76478;BME280;65309;49.790;18.972;2023-01-29T03:44:29;97757.91;;;-4.29;82.16
76478;BME280;65309;49.790;18.972;2023-01-29T03:49:44;97759.97;;;-4.42;82.05
76478;BME280;65309;49.790;18.972;2023-01-29T03:54:53;97758.84;;;-4.41;78.13
76478;BME280;65309;49.790;18.972;2023-01-29T04:00:05;97759.06;;;-4.49;78.31
76478;BME280;65309;49.790;18.972;2023-01-29T04:05:12;97752.19;;;-4.66;78.74
76478;BME280;65309;49.790;18.972;2023-01-29T04:10:18;97748.75;;;-4.63;78.43
76478;BME280;65309;49.790;18.972;2023-01-29T04:15:23;97742.38;;;-4.55;78.77
76478;BME280;65309;49.790;18.972;2023-01-29T04:20:28;97741.53;;;-4.59;78.98
76478;BME280;65309;49.790;18.972;2023-01-29T04:25:35;97721.16;;;-4.76;79.66
76478;BME280;65309;49.790;18.972;2023-01-29T04:30:46;97723.63;;;-4.67;79.35
76478;BME280;65309;49.790;18.972;2023-01-29T04:36:02;97729.97;;;-4.79;79.53
76478;BME280;65309;49.790;18.972;2023-01-29T04:41:15;97725.19;;;-4.66;79.62
76478;BME280;65309;49.790;18.972;2023-01-29T04:46:26;97709.03;;;-4.85;79.12
76478;BME280;65309;49.790;18.972;2023-01-29T04:51:38;97702.47;;;-4.65;79.13
76478;BME280;65309;49.790;18.972;2023-01-29T04:56:52;97695.66;;;-4.78;78.80
76478;BME280;65309;49.790;18.972;2023-01-29T05:01:56;97686.00;;;-4.79;81.01
76478;BME280;65309;49.790;18.972;2023-01-29T05:07:02;97678.06;;;-4.72;80.04
76478;BME280;65309;49.790;18.972;2023-01-29T05:12:08;97674.25;;;-4.90;79.74
76478;BME280;65309;49.790;18.972;2023-01-29T05:17:15;97664.88;;;-4.77;80.12
76478;BME280;65309;49.790;18.972;2023-01-29T05:22:18;97657.00;;;-4.63;79.83
76478;BME280;65309;49.790;18.972;2023-01-29T05:27:33;97663.69;;;-4.57;79.33
76478;BME280;65309;49.790;18.972;2023-01-29T05:32:54;97668.06;;;-4.91;80.14
76478;BME280;65309;49.790;18.972;2023-01-29T05:37:57;97678.97;;;-4.84;81.26
76478;BME280;65309;49.790;18.972;2023-01-29T05:42:59;97680.50;;;-4.86;79.61
76478;BME280;65309;49.790;18.972;2023-01-29T05:48:02;97693.41;;;-4.76;80.02
76478;BME280;65309;49.790;18.972;2023-01-29T05:53:05;97699.16;;;-4.78;79.25
76478;BME280;65309;49.790;18.972;2023-01-29T05:58:07;97698.50;;;-4.71;79.49
76478;BME280;65309;49.790;18.972;2023-01-29T06:03:09;97696.19;;;-4.73;78.98
76478;BME280;65309;49.790;18.972;2023-01-29T06:08:13;97686.06;;;-4.76;80.18
76478;BME280;65309;49.790;18.972;2023-01-29T06:13:15;97692.41;;;-4.68;79.82
76478;BME280;65309;49.790;18.972;2023-01-29T06:18:17;97695.16;;;-4.84;79.52
76478;BME280;65309;49.790;18.972;2023-01-29T06:23:20;97710.28;;;-4.79;78.84
76478;BME280;65309;49.790;18.972;2023-01-29T06:28:22;97707.81;;;-4.27;77.81
76478;BME280;65309;49.790;18.972;2023-01-29T06:33:24;97715.94;;;-4.46;77.62
76478;BME280;65309;49.790;18.972;2023-01-29T06:38:28;97710.97;;;-4.63;78.87
76478;BME280;65309;49.790;18.972;2023-01-29T06:43:30;97717.94;;;-4.62;79.09
76478;BME280;65309;49.790;18.972;2023-01-29T06:48:32;97726.31;;;-4.67;78.12
76478;BME280;65309;49.790;18.972;2023-01-29T06:53:36;97722.16;;;-4.65;79.64
76478;BME280;65309;49.790;18.972;2023-01-29T06:58:38;97731.31;;;-4.69;80.27
76478;BME280;65309;49.790;18.972;2023-01-29T07:03:40;97724.06;;;-4.65;78.59
76478;BME280;65309;49.790;18.972;2023-01-29T07:08:46;97722.06;;;-4.49;78.60
76478;BME280;65309;49.790;18.972;2023-01-29T07:13:48;97730.50;;;-4.50;76.44
76478;BME280;65309;49.790;18.972;2023-01-29T07:18:50;97732.63;;;-4.40;76.19
76478;BME280;65309;49.790;18.972;2023-01-29T07:23:53;97735.84;;;-4.54;76.42
76478;BME280;65309;49.790;18.972;2023-01-29T07:28:55;97739.38;;;-4.50;76.96
76478;BME280;65309;49.790;18.972;2023-01-29T07:33:58;97730.38;;;-4.57;77.52
76478;BME280;65309;49.790;18.972;2023-01-29T07:39:02;97731.28;;;-4.50;76.01
76478;BME280;65309;49.790;18.972;2023-01-29T07:44:04;97734.81;;;-4.27;76.23
76478;BME280;65309;49.790;18.972;2023-01-29T07:49:06;97735.03;;;-4.12;76.59
76478;BME280;65309;49.790;18.972;2023-01-29T07:54:09;97737.75;;;-4.35;76.49
76478;BME280;65309;49.790;18.972;2023-01-29T07:59:11;97742.09;;;-4.50;76.31
76478;BME280;65309;49.790;18.972;2023-01-29T08:04:13;97750.69;;;-4.44;77.29
76478;BME280;65309;49.790;18.972;2023-01-29T08:09:17;97749.19;;;-4.42;76.98
76478;BME280;65309;49.790;18.972;2023-01-29T08:14:19;97749.31;;;-4.35;76.70
76478;BME280;65309;49.790;18.972;2023-01-29T08:19:21;97755.47;;;-4.15;75.67
76478;BME280;65309;49.790;18.972;2023-01-29T08:24:24;97759.84;;;-4.07;75.00
76478;BME280;65309;49.790;18.972;2023-01-29T08:29:42;97773.66;;;-3.89;73.65
76478;BME280;65309;49.790;18.972;2023-01-29T08:34:44;97791.06;;;-3.87;73.88
76478;BME280;65309;49.790;18.972;2023-01-29T08:39:47;97785.44;;;-3.78;73.52
76478;BME280;65309;49.790;18.972;2023-01-29T08:44:49;97785.38;;;-3.33;72.70
76478;BME280;65309;49.790;18.972;2023-01-29T08:49:51;97783.13;;;-3.31;72.89
76478;BME280;65309;49.790;18.972;2023-01-29T08:54:55;97784.34;;;-3.25;73.42
76478;BME280;65309;49.790;18.972;2023-01-29T08:59:57;97783.06;;;-2.78;71.36
76478;BME280;65309;49.790;18.972;2023-01-29T09:04:59;97776.41;;;-2.54;70.19
76478;BME280;65309;49.790;18.972;2023-01-29T09:10:02;97788.38;;;-3.15;71.50
76478;BME280;65309;49.790;18.972;2023-01-29T09:15:05;97792.59;;;-3.17;71.98
76478;BME280;65309;49.790;18.972;2023-01-29T09:20:08;97780.19;;;-3.18;71.61
76478;BME280;65309;49.790;18.972;2023-01-29T09:25:12;97781.00;;;-3.41;72.18
76478;BME280;65309;49.790;18.972;2023-01-29T09:30:15;97783.88;;;-3.04;71.82
76478;BME280;65309;49.790;18.972;2023-01-29T09:35:18;97763.19;;;-3.19;72.33
76478;BME280;65309;49.790;18.972;2023-01-29T09:40:25;97758.84;;;-2.97;70.69
76478;BME280;65309;49.790;18.972;2023-01-29T09:45:28;97744.78;;;-2.80;70.36
76478;BME280;65309;49.790;18.972;2023-01-29T09:50:33;97744.09;;;-2.70;69.56
76478;BME280;65309;49.790;18.972;2023-01-29T09:55:44;97725.53;;;-2.71;69.10
76478;BME280;65309;49.790;18.972;2023-01-29T10:00:52;97739.78;;;-2.74;70.11
76478;BME280;65309;49.790;18.972;2023-01-29T10:06:20;97744.50;;;-2.71;69.47
76478;BME280;65309;49.790;18.972;2023-01-29T10:11:34;97730.34;;;-2.54;69.54
76478;BME280;65309;49.790;18.972;2023-01-29T10:16:48;97726.28;;;-2.71;69.68
76478;BME280;65309;49.790;18.972;2023-01-29T10:22:06;97724.00;;;-2.69;68.50
76478;BME280;65309;49.790;18.972;2023-01-29T10:27:16;97703.09;;;-2.72;68.32
76478;BME280;65309;49.790;18.972;2023-01-29T10:32:20;97705.88;;;-2.98;69.16
76478;BME280;65309;49.790;18.972;2023-01-29T10:37:33;97677.97;;;-2.72;69.08
76478;BME280;65309;49.790;18.972;2023-01-29T10:42:43;97666.59;;;-2.04;67.71
76478;BME280;65309;49.790;18.972;2023-01-29T10:48:03;97662.31;;;-2.86;67.46
76478;BME280;65309;49.790;18.972;2023-01-29T10:53:21;97652.31;;;-2.82;68.75
76478;BME280;65309;49.790;18.972;2023-01-29T10:58:33;97637.38;;;-2.69;68.08
76478;BME280;65309;49.790;18.972;2023-01-29T11:03:37;97625.00;;;-2.70;68.14
76478;BME280;65309;49.790;18.972;2023-01-29T11:08:42;97629.53;;;-2.81;69.17
76478;BME280;65309;49.790;18.972;2023-01-29T11:13:52;97605.59;;;-2.35;68.33
76478;BME280;65309;49.790;18.972;2023-01-29T11:18:57;97593.25;;;-2.73;66.91
76478;BME280;65309;49.790;18.972;2023-01-29T11:24:06;97586.00;;;-3.02;66.75
76478;BME280;65309;49.790;18.972;2023-01-29T11:29:32;97582.44;;;-2.73;65.75
76478;BME280;65309;49.790;18.972;2023-01-29T11:34:55;97575.44;;;-2.74;65.92
76478;BME280;65309;49.790;18.972;2023-01-29T11:39:57;97565.72;;;-2.38;66.06
76478;BME280;65309;49.790;18.972;2023-01-29T11:45:00;97558.91;;;-2.18;66.07
76478;BME280;65309;49.790;18.972;2023-01-29T11:50:03;97552.53;;;-2.43;66.20
76478;BME280;65309;49.790;18.972;2023-01-29T11:55:13;97531.59;;;-2.46;63.87
76478;BME280;65309;49.790;18.972;2023-01-29T12:00:22;97521.34;;;-2.67;64.71
76478;BME280;65309;49.790;18.972;2023-01-29T12:05:26;97523.44;;;-2.97;66.56
76478;BME280;65309;49.790;18.972;2023-01-29T12:10:32;97513.91;;;-2.84;65.54
76478;BME280;65309;49.790;18.972;2023-01-29T12:15:36;97527.66;;;-2.96;66.36
76478;BME280;65309;49.790;18.972;2023-01-29T12:20:41;97530.88;;;-2.40;65.01
76478;BME280;65309;49.790;18.972;2023-01-29T12:25:50;97528.28;;;-2.25;64.63
76478;BME280;65309;49.790;18.972;2023-01-29T12:31:18;97524.97;;;-2.52;66.06
76478;BME280;65309;49.790;18.972;2023-01-29T12:36:26;97520.88;;;-2.80;67.00
76478;BME280;65309;49.790;18.972;2023-01-29T12:41:36;97524.38;;;-2.75;66.91
76478;BME280;65309;49.790;18.972;2023-01-29T12:46:46;97522.84;;;-2.76;66.96
76478;BME280;65309;49.790;18.972;2023-01-29T12:51:56;97531.81;;;-2.69;67.10
76478;BME280;65309;49.790;18.972;2023-01-29T12:57:02;97512.28;;;-3.29;68.75
76478;BME280;65309;49.790;18.972;2023-01-29T13:02:16;97512.63;;;-2.94;67.90
76478;BME280;65309;49.790;18.972;2023-01-29T13:07:24;97503.53;;;-3.15;67.73
76478;BME280;65309;49.790;18.972;2023-01-29T13:12:29;97506.84;;;-3.33;68.50
76478;BME280;65309;49.790;18.972;2023-01-29T13:17:36;97501.41;;;-3.33;68.00
76478;BME280;65309;49.790;18.972;2023-01-29T13:22:42;97507.75;;;-3.21;68.48
76478;BME280;65309;49.790;18.972;2023-01-29T13:27:46;97496.81;;;-3.65;68.75
76478;BME280;65309;49.790;18.972;2023-01-29T13:32:51;97495.16;;;-3.40;69.12
76478;BME280;65309;49.790;18.972;2023-01-29T13:37:55;97493.22;;;-3.03;68.77
76478;BME280;65309;49.790;18.972;2023-01-29T13:42:57;97481.91;;;-3.12;67.32
76478;BME280;65309;49.790;18.972;2023-01-29T13:48:09;97481.94;;;-3.08;68.92
76478;BME280;65309;49.790;18.972;2023-01-29T13:53:20;97477.66;;;-3.13;68.27
76478;BME280;65309;49.790;18.972;2023-01-29T13:58:53;97478.03;;;-3.14;68.74
76478;BME280;65309;49.790;18.972;2023-01-29T14:03:57;97490.66;;;-3.26;69.39
76478;BME280;65309;49.790;18.972;2023-01-29T14:15:01;97477.09;;;-3.33;69.27
76478;BME280;65309;49.790;18.972;2023-01-29T14:20:16;97466.09;;;-3.10;70.08
76478;BME280;65309;49.790;18.972;2023-01-29T14:25:27;97466.06;;;-3.50;69.56
76478;BME280;65309;49.790;18.972;2023-01-29T14:30:31;97465.78;;;-3.42;69.98
76478;BME280;65309;49.790;18.972;2023-01-29T14:35:36;97461.75;;;-3.58;70.00
76478;BME280;65309;49.790;18.972;2023-01-29T14:40:38;97454.44;;;-3.54;70.15
76478;BME280;65309;49.790;18.972;2023-01-29T14:45:41;97432.31;;;-3.67;71.37
76478;BME280;65309;49.790;18.972;2023-01-29T14:50:53;97437.56;;;-3.81;72.60
76478;BME280;65309;49.790;18.972;2023-01-29T14:56:02;97455.25;;;-3.87;72.07
76478;BME280;65309;49.790;18.972;2023-01-29T15:01:15;97455.19;;;-3.91;71.93
76478;BME280;65309;49.790;18.972;2023-01-29T15:06:26;97452.97;;;-3.85;71.44
76478;BME280;65309;49.790;18.972;2023-01-29T15:11:34;97469.81;;;-3.95;71.86
76478;BME280;65309;49.790;18.972;2023-01-29T15:16:47;97469.31;;;-4.04;72.97
76478;BME280;65309;49.790;18.972;2023-01-29T15:22:09;97458.19;;;-4.29;74.52
76478;BME280;65309;49.790;18.972;2023-01-29T15:27:12;97441.53;;;-4.35;76.32
76478;BME280;65309;49.790;18.972;2023-01-29T15:32:22;97434.31;;;-4.53;77.07
76478;BME280;65309;49.790;18.972;2023-01-29T15:37:32;97421.06;;;-4.36;76.29
76478;BME280;65309;49.790;18.972;2023-01-29T15:42:45;97405.44;;;-4.23;75.41
76478;BME280;65309;49.790;18.972;2023-01-29T15:47:49;97414.44;;;-4.42;75.84
76478;BME280;65309;49.790;18.972;2023-01-29T15:53:01;97409.38;;;-4.47;76.22
76478;BME280;65309;49.790;18.972;2023-01-29T15:58:05;97402.03;;;-4.46;76.47
76478;BME280;65309;49.790;18.972;2023-01-29T16:03:13;97389.81;;;-4.37;76.37
76478;BME280;65309;49.790;18.972;2023-01-29T16:08:17;97410.28;;;-4.36;76.50
76478;BME280;65309;49.790;18.972;2023-01-29T16:13:23;97394.09;;;-4.36;76.69
76478;BME280;65309;49.790;18.972;2023-01-29T16:18:29;97388.22;;;-4.41;76.66
76478;BME280;65309;49.790;18.972;2023-01-29T16:23:39;97389.00;;;-4.41;76.69
76478;BME280;65309;49.790;18.972;2023-01-29T16:28:43;97391.84;;;-4.86;78.05
76478;BME280;65309;49.790;18.972;2023-01-29T16:33:46;97401.81;;;-5.13;79.41
76478;BME280;65309;49.790;18.972;2023-01-29T16:38:52;97410.06;;;-5.29;80.41
76478;BME280;65309;49.790;18.972;2023-01-29T16:43:56;97402.75;;;-5.51;81.78
76478;BME280;65309;49.790;18.972;2023-01-29T16:48:58;97417.41;;;-5.71;82.75
76478;BME280;65309;49.790;18.972;2023-01-29T16:54:06;97407.97;;;-5.62;82.99
76478;BME280;65309;49.790;18.972;2023-01-29T16:59:16;97410.81;;;-5.74;82.68
76478;BME280;65309;49.790;18.972;2023-01-29T17:04:19;97405.94;;;-5.68;83.58
76478;BME280;65309;49.790;18.972;2023-01-29T17:09:28;97394.16;;;-5.79;83.55
76478;BME280;65309;49.790;18.972;2023-01-29T17:14:32;97385.09;;;-5.94;83.66
76478;BME280;65309;49.790;18.972;2023-01-29T17:19:35;97374.88;;;-6.04;84.60
76478;BME280;65309;49.790;18.972;2023-01-29T17:24:38;97383.88;;;-5.96;84.72
76478;BME280;65309;49.790;18.972;2023-01-29T17:29:40;97386.63;;;-5.70;82.63
76478;BME280;65309;49.790;18.972;2023-01-29T17:34:42;97398.38;;;-5.82;83.28
76478;BME280;65309;49.790;18.972;2023-01-29T17:39:46;97415.34;;;-6.20;83.30
76478;BME280;65309;49.790;18.972;2023-01-29T17:44:51;97404.09;;;-6.44;85.45
76478;BME280;65309;49.790;18.972;2023-01-29T17:49:53;97413.09;;;-6.37;85.28
76478;BME280;65309;49.790;18.972;2023-01-29T17:54:57;97397.44;;;-6.31;85.86
76478;BME280;65309;49.790;18.972;2023-01-29T17:59:59;97389.72;;;-6.33;85.99
76478;BME280;65309;49.790;18.972;2023-01-29T18:05:01;97391.03;;;-6.04;85.09
76478;BME280;65309;49.790;18.972;2023-01-29T18:10:09;97377.72;;;-5.74;85.27
76478;BME280;65309;49.790;18.972;2023-01-29T18:15:12;97369.94;;;-5.57;84.84
76478;BME280;65309;49.790;18.972;2023-01-29T18:20:18;97351.69;;;-5.44;84.44
76478;BME280;65309;49.790;18.972;2023-01-29T18:25:22;97362.22;;;-5.35;84.33
76478;BME280;65309;49.790;18.972;2023-01-29T18:30:27;97352.16;;;-5.12;83.82
76478;BME280;65309;49.790;18.972;2023-01-29T18:35:29;97368.31;;;-4.89;83.70
76478;BME280;65309;49.790;18.972;2023-01-29T18:40:32;97367.81;;;-4.69;83.19
76478;BME280;65309;49.790;18.972;2023-01-29T18:45:35;97379.06;;;-4.63;82.75
76478;BME280;65309;49.790;18.972;2023-01-29T18:50:37;97377.91;;;-4.62;82.22
76478;BME280;65309;49.790;18.972;2023-01-29T18:55:40;97360.16;;;-4.33;81.33
76478;BME280;65309;49.790;18.972;2023-01-29T19:00:42;97349.53;;;-4.52;81.81
76478;BME280;65309;49.790;18.972;2023-01-29T19:05:44;97351.28;;;-4.34;81.72
76478;BME280;65309;49.790;18.972;2023-01-29T19:10:47;97346.13;;;-4.12;80.88
76478;BME280;65309;49.790;18.972;2023-01-29T19:15:49;97334.88;;;-3.81;79.08
76478;BME280;65309;49.790;18.972;2023-01-29T19:20:52;97331.28;;;-3.92;80.49
76478;BME280;65309;49.790;18.972;2023-01-29T19:25:57;97325.75;;;-3.66;78.82
76478;BME280;65309;49.790;18.972;2023-01-29T19:30:59;97317.97;;;-3.71;78.74
76478;BME280;65309;49.790;18.972;2023-01-29T19:36:01;97307.31;;;-3.57;78.10
76478;BME280;65309;49.790;18.972;2023-01-29T19:41:05;97294.59;;;-3.53;79.19
76478;BME280;65309;49.790;18.972;2023-01-29T19:46:08;97291.13;;;-3.50;79.64
76478;BME280;65309;49.790;18.972;2023-01-29T19:51:11;97280.88;;;-3.27;78.31
76478;BME280;65309;49.790;18.972;2023-01-29T19:56:16;97271.03;;;-3.56;80.76
76478;BME280;65309;49.790;18.972;2023-01-29T20:01:20;97264.72;;;-3.67;81.02
76478;BME280;65309;49.790;18.972;2023-01-29T20:06:24;97273.06;;;-3.86;81.93
76478;BME280;65309;49.790;18.972;2023-01-29T20:11:28;97268.91;;;-3.77;81.52
76478;BME280;65309;49.790;18.972;2023-01-29T20:16:31;97270.81;;;-3.81;82.52
76478;BME280;65309;49.790;18.972;2023-01-29T20:21:33;97260.41;;;-3.75;83.07
76478;BME280;65309;49.790;18.972;2023-01-29T20:26:37;97249.41;;;-3.56;82.62
76478;BME280;65309;49.790;18.972;2023-01-29T20:31:39;97241.66;;;-3.54;82.06
76478;BME280;65309;49.790;18.972;2023-01-29T20:36:41;97233.66;;;-3.40;81.05
76478;BME280;65309;49.790;18.972;2023-01-29T20:41:44;97226.97;;;-3.60;81.81
76478;BME280;65309;49.790;18.972;2023-01-29T20:46:46;97223.53;;;-3.50;79.99
76478;BME280;65309;49.790;18.972;2023-01-29T20:51:48;97221.69;;;-3.39;78.90
76478;BME280;65309;49.790;18.972;2023-01-29T20:56:52;97229.56;;;-3.09;77.49
76478;BME280;65309;49.790;18.972;2023-01-29T21:01:54;97228.59;;;-3.45;80.02
76478;BME280;65309;49.790;18.972;2023-01-29T21:06:56;97214.63;;;-3.54;80.46
76478;BME280;65309;49.790;18.972;2023-01-29T21:12:00;97225.06;;;-3.56;81.63
76478;BME280;65309;49.790;18.972;2023-01-29T21:17:02;97221.50;;;-3.67;81.56
76478;BME280;65309;49.790;18.972;2023-01-29T21:22:05;97224.66;;;-3.58;82.20
76478;BME280;65309;49.790;18.972;2023-01-29T21:27:08;97225.28;;;-3.20;80.93
76478;BME280;65309;49.790;18.972;2023-01-29T21:32:12;97214.06;;;-3.22;81.37
76478;BME280;65309;49.790;18.972;2023-01-29T21:37:14;97207.09;;;-3.23;81.48
76478;BME280;65309;49.790;18.972;2023-01-29T21:42:17;97195.91;;;-3.22;81.74
76478;BME280;65309;49.790;18.972;2023-01-29T21:47:38;97176.25;;;-3.12;81.27
76478;BME280;65309;49.790;18.972;2023-01-29T21:52:40;97166.97;;;-3.11;80.30
76478;BME280;65309;49.790;18.972;2023-01-29T21:57:43;97155.34;;;-3.18;80.17
76478;BME280;65309;49.790;18.972;2023-01-29T22:02:47;97142.63;;;-3.11;80.80
76478;BME280;65309;49.790;18.972;2023-01-29T22:07:51;97130.66;;;-3.13;81.21
76478;BME280;65309;49.790;18.972;2023-01-29T22:12:54;97125.97;;;-3.23;82.22
76478;BME280;65309;49.790;18.972;2023-01-29T22:17:56;97118.28;;;-3.14;80.70
76478;BME280;65309;49.790;18.972;2023-01-29T22:22:58;97107.84;;;-3.12;81.78
76478;BME280;65309;49.790;18.972;2023-01-29T22:28:02;97108.22;;;-3.17;82.24
76478;BME280;65309;49.790;18.972;2023-01-29T22:33:05;97091.22;;;-3.14;82.44
76478;BME280;65309;49.790;18.972;2023-01-29T22:38:06;97079.75;;;-2.55;78.38
76478;BME280;65309;49.790;18.972;2023-01-29T22:43:10;97078.53;;;-2.82;79.79
76478;BME280;65309;49.790;18.972;2023-01-29T22:48:12;97064.13;;;-3.29;81.98
76478;BME280;65309;49.790;18.972;2023-01-29T22:53:15;97076.13;;;-3.26;80.54
76478;BME280;65309;49.790;18.972;2023-01-29T22:58:18;97058.34;;;-3.31;81.73
76478;BME280;65309;49.790;18.972;2023-01-29T23:03:20;97060.00;;;-2.76;78.93
76478;BME280;65309;49.790;18.972;2023-01-29T23:08:22;97053.44;;;-2.58;77.83
76478;BME280;65309;49.790;18.972;2023-01-29T23:13:25;97046.47;;;-2.80;78.18
76478;BME280;65309;49.790;18.972;2023-01-29T23:18:27;97037.13;;;-3.21;80.13
76478;BME280;65309;49.790;18.972;2023-01-29T23:23:29;97035.34;;;-3.79;82.83
76478;BME280;65309;49.790;18.972;2023-01-29T23:28:33;97036.03;;;-3.96;83.29
76478;BME280;65309;49.790;18.972;2023-01-29T23:33:35;97032.81;;;-4.20;83.82
76478;BME280;65309;49.790;18.972;2023-01-29T23:38:37;97010.69;;;-4.43;84.56
76478;BME280;65309;49.790;18.972;2023-01-29T23:43:40;96997.75;;;-4.71;84.88
76478;BME280;65309;49.790;18.972;2023-01-29T23:48:42;96977.88;;;-4.99;85.98
76478;BME280;65309;49.790;18.972;2023-01-29T23:53:44;96965.81;;;-5.13;87.23
76478;BME280;65309;49.790;18.972;2023-01-29T23:58:51;96951.53;;;-5.17;87.25
